Time;durP1;ratioP1;P1;durP2;ratioP2;P2;SDS_P1;SDS_P2;PMS_P1;PMS_P2;Temp;Humidity;BMP_temperature;BMP_pressure;BME280_temperature;BME280_humidity;BME280_pressure;Samples;Min_cycle;Max_cycle;Signal;HPM_P1;HPM_P2
2022/07/14 00:01:51;;;;;;;11.85;1.92;;;10.80;99.90;;;;;;5055625;28;20025;-71
2022/07/14 00:04:16;;;;;;;6.63;1.42;;;10.80;99.90;;;;;;5056469;28;20392;-70
2022/07/14 00:06:42;;;;;;;7.90;1.88;;;10.70;99.90;;;;;;5056717;28;20028;-70
2022/07/14 00:09:07;;;;;;;25.52;2.38;;;10.60;99.90;;;;;;5056827;28;20046;-71
2022/07/14 00:11:33;;;;;;;5.97;1.63;;;10.50;99.90;;;;;;5056583;28;20055;-70
2022/07/14 00:13:59;;;;;;;8.80;2.13;;;10.40;99.90;;;;;;5056595;28;20025;-70
2022/07/14 00:16:25;;;;;;;21.60;1.98;;;10.40;99.90;;;;;;5056608;28;20104;-71
2022/07/14 00:18:51;;;;;;;11.98;1.83;;;10.30;99.90;;;;;;5056529;28;20032;-70
2022/07/14 00:21:17;;;;;;;7.40;1.90;;;10.30;99.90;;;;;;5056513;28;20101;-71
2022/07/14 00:23:45;;;;;;;5.57;1.50;;;10.30;99.90;;;;;;5056392;28;20416;-71
2022/07/14 00:26:12;;;;;;;4.40;1.70;;;10.30;99.90;;;;;;5056375;28;20031;-70
2022/07/14 00:28:38;;;;;;;16.98;1.90;;;10.20;99.90;;;;;;5056327;28;20103;-70
2022/07/14 00:31:11;;;;;;;8.48;1.60;;;10.10;99.90;;;;;;5056406;28;20448;-70
2022/07/14 00:33:38;;;;;;;7.18;1.48;;;10.00;99.90;;;;;;5056272;28;20463;-71
2022/07/14 00:36:04;;;;;;;10.20;1.98;;;9.90;99.90;;;;;;5056105;28;20040;-70
2022/07/14 00:38:30;;;;;;;5.10;1.27;;;9.80;99.90;;;;;;5056373;28;20033;-70
2022/07/14 00:40:56;;;;;;;6.35;1.60;;;9.70;99.90;;;;;;5056042;28;20036;-70
2022/07/14 00:43:21;;;;;;;7.72;1.60;;;9.70;99.90;;;;;;5055959;28;20477;-70
2022/07/14 00:45:48;;;;;;;6.35;1.17;;;9.60;99.90;;;;;;5055961;28;20031;-71
2022/07/14 00:48:13;;;;;;;8.95;1.35;;;9.50;99.90;;;;;;5055888;28;20021;-71
2022/07/14 00:50:41;;;;;;;12.40;1.63;;;9.50;99.90;;;;;;5055822;28;20020;-70
2022/07/14 00:53:08;;;;;;;10.40;1.95;;;9.40;99.90;;;;;;5055071;28;20504;-70
2022/07/14 00:55:35;;;;;;;7.65;1.83;;;9.40;99.90;;;;;;5055212;28;20033;-70
2022/07/14 00:58:00;;;;;;;4.57;1.42;;;9.30;99.90;;;;;;5055803;28;20028;-70
2022/07/14 01:00:26;;;;;;;6.53;1.08;;;9.30;99.90;;;;;;5055772;28;20033;-70
2022/07/14 01:02:52;;;;;;;4.03;1.08;;;9.20;99.90;;;;;;5055632;28;20031;-71
2022/07/14 01:05:18;;;;;;;6.05;1.27;;;9.20;99.90;;;;;;5055955;28;20033;-70
2022/07/14 01:07:44;;;;;;;9.05;1.95;;;9.10;99.90;;;;;;5055542;28;20107;-70
2022/07/14 01:10:10;;;;;;;7.40;1.50;;;9.00;99.90;;;;;;5055442;28;20021;-70
2022/07/14 01:12:36;;;;;;;5.50;1.10;;;9.00;99.90;;;;;;5054308;28;20028;-70
2022/07/14 01:15:03;;;;;;;5.50;1.35;;;8.90;99.90;;;;;;5055277;28;20039;-70
2022/07/14 01:17:29;;;;;;;7.30;1.65;;;8.90;99.90;;;;;;5055287;28;20021;-70
2022/07/14 01:19:55;;;;;;;6.07;2.33;;;8.90;99.90;;;;;;5055377;28;20056;-70
2022/07/14 01:22:21;;;;;;;7.70;1.50;;;8.90;99.90;;;;;;5055111;28;20021;-70
2022/07/14 01:24:46;;;;;;;6.55;1.45;;;8.90;99.90;;;;;;5055228;28;20036;-70
2022/07/14 01:27:12;;;;;;;4.85;1.60;;;8.90;99.90;;;;;;5055297;28;20570;-70
2022/07/14 01:29:37;;;;;;;8.32;1.45;;;8.90;99.90;;;;;;5055160;28;20462;-70
2022/07/14 01:32:04;;;;;;;4.43;1.30;;;8.90;99.90;;;;;;5055478;28;20037;-70
2022/07/14 01:34:30;;;;;;;8.15;1.30;;;8.80;99.90;;;;;;5054945;28;20025;-70
2022/07/14 01:36:55;;;;;;;5.30;1.42;;;8.80;99.90;;;;;;5055159;28;20552;-70
2022/07/14 01:39:21;;;;;;;8.65;1.55;;;8.80;99.90;;;;;;5054984;28;20095;-70
2022/07/14 01:41:47;;;;;;;8.07;1.30;;;8.70;99.90;;;;;;5055001;28;20036;-70
2022/07/14 01:44:13;;;;;;;8.45;1.52;;;8.70;99.90;;;;;;5054742;28;20025;-70
2022/07/14 01:46:38;;;;;;;3.17;1.23;;;8.70;99.90;;;;;;5054811;28;20017;-70
2022/07/14 01:49:07;;;;;;;7.38;1.40;;;8.60;99.90;;;;;;5054723;28;20025;-70
2022/07/14 01:51:33;;;;;;;6.57;1.38;;;8.70;99.90;;;;;;5054751;28;20029;-70
2022/07/14 01:53:59;;;;;;;11.23;1.45;;;8.60;99.90;;;;;;5054686;28;20048;-70
2022/07/14 01:56:25;;;;;;;9.38;1.60;;;8.60;99.90;;;;;;5054505;28;20096;-70
2022/07/14 01:58:50;;;;;;;4.32;1.30;;;8.70;99.90;;;;;;5054481;28;20028;-70
2022/07/14 02:04:01;;;;;;;21.27;2.13;;;9.20;99.90;;;;;;5054535;28;20032;-70
2022/07/14 02:06:29;;;;;;;12.45;1.67;;;9.40;99.90;;;;;;5053925;28;20076;-71
2022/07/14 02:08:55;;;;;;;13.93;1.48;;;9.50;99.90;;;;;;5054379;28;20021;-71
2022/07/14 02:14:05;;;;;;;8.23;2.10;;;9.80;99.90;;;;;;5054465;28;20056;-71
2022/07/14 02:16:31;;;;;;;9.55;1.80;;;9.90;99.90;;;;;;5054340;28;20481;-71
2022/07/14 02:18:57;;;;;;;5.95;1.17;;;9.90;99.90;;;;;;5054219;28;20029;-71
2022/07/14 02:21:23;;;;;;;18.67;1.77;;;9.80;99.90;;;;;;5054307;28;20466;-71
2022/07/14 02:23:49;;;;;;;9.50;1.77;;;9.70;99.90;;;;;;5053957;28;20127;-71
2022/07/14 02:26:14;;;;;;;9.43;1.55;;;9.60;99.90;;;;;;5054012;28;20021;-71
2022/07/14 02:28:41;;;;;;;11.25;1.55;;;9.60;99.90;;;;;;5054199;28;20017;-71
2022/07/14 02:31:09;;;;;;;15.57;2.05;;;9.50;99.90;;;;;;5053973;28;20044;-71
2022/07/14 02:33:35;;;;;;;9.52;1.67;;;9.50;99.90;;;;;;5053965;28;20504;-71
2022/07/14 02:36:00;;;;;;;6.88;1.13;;;9.50;99.90;;;;;;5053873;28;20028;-71
2022/07/14 02:38:26;;;;;;;3.13;0.80;;;9.40;99.90;;;;;;5053966;28;20481;-70
2022/07/14 02:40:52;;;;;;;7.80;1.30;;;9.30;99.90;;;;;;5054083;28;20025;-71
2022/07/14 02:43:18;;;;;;;4.30;1.00;;;9.20;99.90;;;;;;5053744;28;20025;-70
2022/07/14 02:45:44;;;;;;;3.65;1.10;;;9.10;99.90;;;;;;5053799;28;20079;-71
2022/07/14 02:48:09;;;;;;;4.57;1.10;;;9.00;99.90;;;;;;5053856;28;20481;-70
2022/07/14 02:50:40;;;;;;;6.57;1.52;;;8.90;99.90;;;;;;5053694;28;20223;-71
2022/07/14 02:53:06;;;;;;;6.25;1.38;;;8.80;99.90;;;;;;5053702;28;20097;-70
2022/07/14 02:55:34;;;;;;;9.85;1.42;;;8.90;99.90;;;;;;5053575;28;20029;-70
2022/07/14 02:58:00;;;;;;;7.43;1.13;;;8.80;99.90;;;;;;5053801;28;20024;-70
2022/07/14 03:00:26;;;;;;;2.38;1.35;;;8.80;99.90;;;;;;5053595;28;20432;-70
2022/07/14 03:02:52;;;;;;;6.00;1.40;;;8.70;99.90;;;;;;5053512;28;20037;-70
2022/07/14 03:05:18;;;;;;;7.78;1.38;;;8.70;99.90;;;;;;5053248;28;20056;-70
2022/07/14 03:07:44;;;;;;;4.65;1.27;;;8.70;99.90;;;;;;5053687;28;20040;-70
2022/07/14 03:10:10;;;;;;;4.78;1.40;;;8.60;99.90;;;;;;5053749;28;20090;-70
2022/07/14 03:12:35;;;;;;;4.65;1.27;;;8.60;99.90;;;;;;5053596;28;20473;-70
2022/07/14 03:15:01;;;;;;;8.90;1.50;;;8.60;99.90;;;;;;5053568;28;20033;-70
2022/07/14 03:17:27;;;;;;;4.80;1.08;;;8.70;99.90;;;;;;5055132;28;20029;-70
2022/07/14 03:19:52;;;;;;;8.15;1.48;;;8.70;99.90;;;;;;5057482;28;20033;-70
2022/07/14 03:22:19;;;;;;;6.95;1.50;;;8.70;99.90;;;;;;5057524;28;20147;-70
2022/07/14 03:24:44;;;;;;;8.15;1.90;;;8.70;99.90;;;;;;5057259;28;20481;-70
2022/07/14 03:27:10;;;;;;;7.70;1.35;;;8.60;99.90;;;;;;5057505;28;20130;-71
2022/07/14 03:29:39;;;;;;;4.43;1.48;;;8.60;99.90;;;;;;5057583;28;20465;-71
2022/07/14 03:32:05;;;;;;;6.38;1.35;;;8.60;99.90;;;;;;5057457;28;20025;-71
2022/07/14 03:34:31;;;;;;;3.50;1.15;;;8.50;99.90;;;;;;5057122;28;20104;-71
2022/07/14 03:36:57;;;;;;;10.48;1.40;;;8.50;99.90;;;;;;5057285;28;20021;-70
2022/07/14 03:39:22;;;;;;;7.70;1.25;;;8.40;99.90;;;;;;5057297;28;20017;-70
2022/07/14 03:41:48;;;;;;;5.75;1.30;;;8.40;99.90;;;;;;5057255;28;20056;-70
2022/07/14 03:44:13;;;;;;;3.30;1.58;;;8.40;99.90;;;;;;5057107;28;20443;-70
2022/07/14 03:46:39;;;;;;;5.28;1.20;;;8.40;99.90;;;;;;5057185;28;20409;-70
2022/07/14 03:49:04;;;;;;;9.20;1.80;;;8.50;99.90;;;;;;5056933;28;20017;-70
2022/07/14 03:51:31;;;;;;;5.30;1.33;;;8.60;99.90;;;;;;5057504;28;20017;-70
2022/07/14 03:53:56;;;;;;;4.75;1.33;;;8.60;99.90;;;;;;5057136;28;20043;-70
2022/07/14 03:56:22;;;;;;;5.90;1.58;;;8.60;99.90;;;;;;5056948;28;20143;-70
2022/07/14 03:58:47;;;;;;;8.25;1.58;;;8.70;99.90;;;;;;5056986;28;20040;-70
2022/07/14 04:01:13;;;;;;;6.07;1.65;;;8.70;99.90;;;;;;5056894;28;20493;-70
2022/07/14 04:03:39;;;;;;;5.22;2.17;;;8.80;99.90;;;;;;5056690;28;20029;-70
2022/07/14 04:06:04;;;;;;;13.00;1.60;;;8.90;99.90;;;;;;5056623;28;20065;-70
2022/07/14 04:08:30;;;;;;;5.45;1.55;;;8.90;99.90;;;;;;5056731;28;20488;-70
2022/07/14 04:10:56;;;;;;;6.78;1.30;;;9.00;99.90;;;;;;5056661;28;20106;-70
2022/07/14 04:13:22;;;;;;;8.80;2.45;;;9.10;99.90;;;;;;5056618;28;20025;-70
2022/07/14 04:15:47;;;;;;;10.30;1.83;;;9.30;99.90;;;;;;5056577;28;20428;-70
2022/07/14 04:18:13;;;;;;;5.35;1.27;;;9.40;99.90;;;;;;5056543;28;20396;-70
2022/07/14 04:20:39;;;;;;;6.90;1.20;;;9.50;99.90;;;;;;5056538;28;20393;-70
2022/07/14 04:23:05;;;;;;;8.30;1.60;;;9.60;99.90;;;;;;5056276;28;20028;-70
2022/07/14 04:25:30;;;;;;;7.00;1.70;;;9.80;99.90;;;;;;5056452;28;20452;-70
2022/07/14 04:27:56;;;;;;;8.77;1.60;;;9.90;99.90;;;;;;5053857;28;20366;-70
2022/07/14 04:30:22;;;;;;;6.13;1.40;;;10.00;99.90;;;;;;5036502;28;20022;-71
2022/07/14 04:32:47;;;;;;;6.22;2.03;;;10.20;99.90;;;;;;5036698;28;20056;-71
2022/07/14 04:35:13;;;;;;;13.65;1.58;;;10.30;99.90;;;;;;5036383;28;20036;-71
2022/07/14 04:37:39;;;;;;;7.78;1.83;;;10.60;99.90;;;;;;5036455;28;20419;-71
2022/07/14 04:40:06;;;;;;;10.05;2.53;;;10.90;99.90;;;;;;5044479;28;20374;-71
2022/07/14 04:42:31;;;;;;;11.48;1.75;;;11.20;99.90;;;;;;5056012;28;20074;-71
2022/07/14 04:44:57;;;;;;;17.02;2.00;;;11.50;99.90;;;;;;5056267;28;20423;-71
2022/07/14 04:47:22;;;;;;;10.90;2.00;;;11.60;99.90;;;;;;5056037;28;20025;-71
2022/07/14 04:52:32;;;;;;;16.15;2.63;;;12.00;99.90;;;;;;5056038;28;20106;-70
2022/07/14 04:54:57;;;;;;;11.07;1.80;;;12.20;99.90;;;;;;5054671;28;20071;-71
2022/07/14 04:57:23;;;;;;;10.25;1.10;;;12.30;99.90;;;;;;5055863;28;20026;-70
2022/07/14 04:59:48;;;;;;;15.18;2.05;;;12.40;99.90;;;;;;5055817;28;20032;-70
2022/07/14 05:02:14;;;;;;;17.60;2.30;;;12.60;99.90;;;;;;5055723;28;20489;-71
2022/07/14 05:04:40;;;;;;;7.20;1.38;;;12.70;99.90;;;;;;5055548;28;20041;-71
2022/07/14 05:07:06;;;;;;;6.55;1.13;;;12.90;99.90;;;;;;5055744;28;20021;-71
2022/07/14 05:09:35;;;;;;;10.20;1.95;;;13.00;99.90;;;;;;5055792;28;20017;-71
2022/07/14 05:12:01;;;;;;;10.65;1.48;;;13.10;99.90;;;;;;5055722;28;20021;-71
2022/07/14 05:14:29;;;;;;;8.40;1.38;;;13.20;99.90;;;;;;5055582;28;20029;-71
2022/07/14 05:16:55;;;;;;;13.40;1.20;;;13.40;99.90;;;;;;5055530;28;20032;-71
2022/07/14 05:19:21;;;;;;;10.40;1.20;;;13.60;99.90;;;;;;5055403;28;20025;-71
2022/07/14 05:21:46;;;;;;;5.10;0.88;;;13.70;99.90;;;;;;5055414;28;20039;-71
2022/07/14 05:24:12;;;;;;;12.98;1.30;;;13.90;99.90;;;;;;5055271;28;20033;-71
2022/07/14 05:26:38;;;;;;;8.40;1.98;;;14.10;99.90;;;;;;5055756;28;20401;-71
2022/07/14 05:29:04;;;;;;;6.15;1.42;;;14.30;99.90;;;;;;5053896;28;20074;-71
2022/07/14 05:31:30;;;;;;;15.00;1.48;;;14.40;99.90;;;;;;5055120;28;20100;-71
2022/07/14 05:33:56;;;;;;;9.35;1.13;;;14.50;99.90;;;;;;5055106;28;20029;-71
2022/07/14 05:36:23;;;;;;;10.18;1.10;;;14.60;99.90;;;;;;5054996;28;20072;-70
2022/07/14 05:38:49;;;;;;;6.75;1.10;;;14.80;99.90;;;;;;5055118;28;20107;-70
2022/07/14 05:41:15;;;;;;;8.52;1.20;;;15.00;99.90;;;;;;5054320;28;20107;-71
2022/07/14 05:43:41;;;;;;;12.40;2.17;;;15.10;99.90;;;;;;5054962;28;20043;-71
2022/07/14 05:46:08;;;;;;;22.95;1.75;;;15.30;99.90;;;;;;5054798;28;20518;-71
2022/07/14 05:48:35;;;;;;;5.80;1.15;;;15.40;99.90;;;;;;5054931;28;20025;-71
2022/07/14 05:51:12;;;;;;;7.35;1.02;;;15.50;99.90;;;;;;5054805;28;20105;-71
2022/07/14 05:53:39;;;;;;;16.30;1.73;;;15.50;99.90;;;;;;5054772;28;20070;-71
2022/07/14 05:56:06;;;;;;;7.65;1.40;;;15.50;99.90;;;;;;5055025;28;20021;-71
2022/07/14 05:58:32;;;;;;;8.30;1.38;;;15.60;99.90;;;;;;5044807;28;20096;-71
2022/07/14 06:00:58;;;;;;;10.32;1.33;;;15.60;99.90;;;;;;5034925;28;20045;-71
2022/07/14 06:03:24;;;;;;;8.43;1.17;;;15.70;99.90;;;;;;5034525;28;20033;-71
2022/07/14 06:05:50;;;;;;;11.82;0.88;;;15.80;99.90;;;;;;5035022;28;20033;-71
2022/07/14 06:08:16;;;;;;;11.82;2.20;;;15.70;99.90;;;;;;5035063;28;20018;-71
2022/07/14 06:10:41;;;;;;;5.40;1.15;;;16.00;99.90;;;;;;5034758;28;20025;-71
2022/07/14 06:13:07;;;;;;;11.07;1.88;;;16.10;99.90;;;;;;5034690;28;20477;-69
2022/07/14 06:15:33;;;;;;;8.95;1.55;;;16.20;99.90;;;;;;5034142;28;20021;-68
2022/07/14 06:17:58;;;;;;;14.80;1.48;;;16.30;99.90;;;;;;5034667;28;20031;-69
2022/07/14 06:20:24;;;;;;;16.25;2.03;;;16.30;99.90;;;;;;5034590;28;20485;-69
2022/07/14 06:22:49;;;;;;;15.13;2.30;;;16.40;99.90;;;;;;5034148;28;20052;-69
2022/07/14 06:25:16;;;;;;;7.90;1.83;;;16.40;99.90;;;;;;5034425;28;20033;-69
2022/07/14 06:27:42;;;;;;;16.08;1.48;;;16.50;99.90;;;;;;5034380;28;20033;-69
2022/07/14 06:30:09;;;;;;;4.82;1.35;;;16.50;99.90;;;;;;5033743;28;20025;-69
2022/07/14 06:32:40;;;;;;;13.82;1.55;;;16.50;99.90;;;;;;5033823;28;20036;-69
2022/07/14 06:35:07;;;;;;;8.10;1.65;;;16.50;99.90;;;;;;5034162;28;20039;-69
2022/07/14 06:37:34;;;;;;;7.18;1.23;;;16.50;99.90;;;;;;5033880;28;20418;-69
2022/07/14 06:40:05;;;;;;;5.28;1.27;;;16.50;99.90;;;;;;5033935;28;20029;-69
2022/07/14 06:42:32;;;;;;;14.57;1.30;;;16.50;99.90;;;;;;5042458;28;20032;-69
2022/07/14 06:44:58;;;;;;;11.18;2.00;;;16.70;99.90;;;;;;5053603;28;20021;-68
2022/07/14 06:47:23;;;;;;;10.23;1.30;;;16.80;99.90;;;;;;5053930;28;20021;-68
2022/07/14 06:49:49;;;;;;;8.88;1.48;;;16.80;99.90;;;;;;5053767;28;20017;-69
2022/07/14 06:52:15;;;;;;;15.48;1.55;;;16.70;99.90;;;;;;5053526;28;20032;-69
2022/07/14 06:54:40;;;;;;;9.73;1.63;;;16.90;99.90;;;;;;5053521;28;20020;-69
2022/07/14 06:57:06;;;;;;;7.88;1.77;;;17.10;99.90;;;;;;5053456;28;20104;-69
2022/07/14 06:59:32;;;;;;;18.05;3.28;;;17.10;99.90;;;;;;5054058;28;20102;-68
2022/07/14 07:01:57;;;;;;;11.48;1.42;;;17.20;99.90;;;;;;5053386;28;20017;-69
2022/07/14 07:04:23;;;;;;;8.13;1.50;;;17.20;99.90;;;;;;5053242;28;20119;-69
2022/07/14 07:06:50;;;;;;;8.98;1.50;;;17.40;99.90;;;;;;5076568;23;20045;-68
2022/07/14 07:09:19;;;;;;;10.88;2.13;;;17.60;99.90;;;;;;5053627;28;20036;-68
2022/07/14 07:11:45;;;;;;;7.65;1.67;;;17.80;99.90;;;;;;5053193;28;20400;-68
2022/07/14 07:14:11;;;;;;;11.40;1.70;;;17.70;99.90;;;;;;5053241;28;20029;-69
2022/07/14 07:16:37;;;;;;;7.10;1.27;;;17.60;99.90;;;;;;5053172;28;20052;-69
2022/07/14 07:19:03;;;;;;;9.32;1.25;;;17.40;99.90;;;;;;5053486;28;20025;-69
2022/07/14 07:21:29;;;;;;;9.80;2.10;;;17.40;99.90;;;;;;5053188;28;20025;-69
2022/07/14 07:23:55;;;;;;;10.93;1.88;;;17.30;99.90;;;;;;5052969;28;20040;-69
2022/07/14 07:26:24;;;;;;;7.47;2.03;;;17.30;99.90;;;;;;5053090;28;20074;-69
2022/07/14 07:28:52;;;;;;;7.28;1.15;;;17.50;99.90;;;;;;5053076;28;20025;-70
2022/07/14 07:31:17;;;;;;;8.77;1.45;;;17.70;99.90;;;;;;5053060;28;20028;-70
2022/07/14 07:33:43;;;;;;;13.82;1.42;;;17.90;99.90;;;;;;5053187;28;20024;-70
2022/07/14 07:36:08;;;;;;;11.25;1.13;;;17.90;99.90;;;;;;5052962;28;20067;-70
2022/07/14 07:38:34;;;;;;;10.18;1.42;;;18.10;99.90;;;;;;5053019;28;20025;-70
2022/07/14 07:41:02;;;;;;;5.05;1.10;;;18.50;99.90;;;;;;5053050;28;20025;-70
2022/07/14 07:43:28;;;;;;;4.68;1.17;;;18.40;99.90;;;;;;5053229;28;20048;-69
2022/07/14 07:45:53;;;;;;;6.68;1.30;;;18.30;99.90;;;;;;5052904;28;20045;-70
2022/07/14 07:48:19;;;;;;;10.88;1.70;;;18.20;99.90;;;;;;5052952;28;20025;-70
2022/07/14 07:50:45;;;;;;;7.72;1.58;;;18.10;99.90;;;;;;5048574;28;20480;-70
2022/07/14 07:53:11;;;;;;;9.88;1.48;;;18.10;99.90;;;;;;5033289;28;20065;-71
2022/07/14 07:55:38;;;;;;;12.57;1.02;;;18.00;99.90;;;;;;5032952;28;20079;-71
2022/07/14 07:58:04;;;;;;;12.18;3.03;;;17.90;99.90;;;;;;5033396;28;20028;-71
2022/07/14 08:00:31;;;;;;;8.60;1.38;;;17.90;99.90;;;;;;5032988;28;20493;-71
2022/07/14 08:02:57;;;;;;;9.70;1.48;;;17.80;99.90;;;;;;5033518;28;20075;-71
2022/07/14 08:05:26;;;;;;;14.70;1.88;;;17.90;99.90;;;;;;5048459;28;20021;-72
2022/07/14 08:07:52;;;;;;;8.68;1.20;;;17.90;99.90;;;;;;5056880;28;20059;-71
2022/07/14 08:10:18;;;;;;;5.38;1.10;;;17.80;99.90;;;;;;5056458;28;20381;-71
2022/07/14 08:12:45;;;;;;;11.77;1.33;;;17.80;99.90;;;;;;5056441;28;20025;-71
2022/07/14 08:15:12;;;;;;;6.07;1.30;;;17.70;99.90;;;;;;5056731;28;20473;-70
2022/07/14 08:17:38;;;;;;;12.77;2.00;;;17.70;99.90;;;;;;5056424;28;20044;-70
2022/07/14 08:20:07;;;;;;;8.02;1.30;;;17.70;99.90;;;;;;5056273;28;20025;-70
2022/07/14 08:22:34;;;;;;;6.95;1.38;;;17.80;99.90;;;;;;5056110;28;20029;-69
2022/07/14 08:24:59;;;;;;;11.43;1.70;;;17.80;99.90;;;;;;5056187;28;20032;-69
2022/07/14 08:27:26;;;;;;;6.07;1.20;;;17.90;99.90;;;;;;5056084;28;20481;-69
2022/07/14 08:29:53;;;;;;;8.07;2.13;;;18.00;99.90;;;;;;5055901;28;20096;-68
2022/07/14 08:32:34;;;;;;;7.00;1.55;;;17.80;99.90;;;;;;5055998;28;20040;-68
2022/07/14 08:35:01;;;;;;;6.30;1.63;;;17.70;99.90;;;;;;5056348;28;20017;-68
2022/07/14 08:37:27;;;;;;;9.68;1.67;;;17.80;99.90;;;;;;5055716;28;20025;-68
2022/07/14 08:39:52;;;;;;;5.50;1.20;;;17.90;99.90;;;;;;5055908;28;20028;-69
2022/07/14 08:42:18;;;;;;;14.25;1.58;;;18.10;99.90;;;;;;5055711;28;20023;-69
2022/07/14 08:44:44;;;;;;;14.98;1.20;;;18.30;99.90;;;;;;5055840;28;20025;-69
2022/07/14 08:47:10;;;;;;;5.57;1.50;;;18.50;99.90;;;;;;5055692;28;20036;-69
2022/07/14 08:49:36;;;;;;;5.13;1.20;;;18.40;99.90;;;;;;5055773;28;20032;-71
2022/07/14 08:52:02;;;;;;;10.18;1.27;;;18.50;99.90;;;;;;5055570;28;20523;-71
2022/07/14 08:54:28;;;;;;;7.82;2.17;;;18.50;99.90;;;;;;5055838;28;20034;-72
2022/07/14 08:56:53;;;;;;;6.03;1.35;;;18.70;99.90;;;;;;5055761;28;20028;-71
2022/07/14 08:59:19;;;;;;;6.15;1.30;;;18.80;99.90;;;;;;5055551;28;20029;-69
2022/07/14 09:01:49;;;;;;;8.98;1.30;;;18.80;99.90;;;;;;5055505;28;20058;-69
2022/07/14 09:04:15;;;;;;;9.90;1.80;;;18.90;99.90;;;;;;5055521;28;20111;-69
2022/07/14 09:06:46;;;;;;;5.35;1.30;;;18.90;99.90;;;;;;5055464;28;20021;-70
2022/07/14 09:09:34;;;;;;;7.88;1.50;;;18.80;99.90;;;;;;5050274;28;20021;-69
2022/07/14 09:12:05;;;;;;;8.88;1.67;;;18.50;99.90;;;;;;5034284;28;20029;-69
2022/07/14 09:17:20;;;;;;;11.05;1.85;;;17.90;99.90;;;;;;5035665;28;20040;-71
2022/07/14 09:20:09;;;;;;;7.95;1.73;;;18.10;99.90;;;;;;5035586;28;20029;-70
2022/07/14 09:22:36;;;;;;;13.63;2.15;;;18.30;99.90;;;;;;5050211;28;20503;-69
2022/07/14 09:25:04;;;;;;;14.23;1.70;;;18.30;99.90;;;;;;5055114;28;20028;-69
2022/07/14 09:27:31;;;;;;;8.38;1.48;;;18.70;99.90;;;;;;5054824;28;20082;-69
2022/07/14 09:29:56;;;;;;;11.32;1.70;;;18.90;99.90;;;;;;5054995;28;20029;-69
2022/07/14 09:32:45;;;;;;;11.63;1.55;;;18.80;99.90;;;;;;5054799;28;20024;-69
2022/07/14 09:35:12;;;;;;;12.43;1.40;;;18.70;99.90;;;;;;5054882;28;20025;-69
2022/07/14 09:37:41;;;;;;;6.35;1.17;;;18.70;99.90;;;;;;5054728;28;20093;-69
2022/07/14 09:40:11;;;;;;;9.88;1.73;;;18.40;99.90;;;;;;5055078;28;20037;-69
2022/07/14 09:42:50;;;;;;;7.60;1.63;;;18.20;99.90;;;;;;5054710;28;20078;-72
2022/07/14 09:45:21;;;;;;;12.43;1.70;;;18.20;99.90;;;;;;5057321;28;20032;-72
2022/07/14 09:47:59;;;;;;;10.50;1.80;;;18.10;99.90;;;;;;5054978;28;20059;-73
2022/07/14 09:50:47;;;;;;;15.07;1.65;;;18.00;99.90;;;;;;5054670;28;20021;-73
2022/07/14 09:53:31;;;;;;;15.05;2.03;;;17.90;99.90;;;;;;5054807;28;20021;-73
2022/07/14 09:56:03;;;;;;;5.63;1.35;;;17.90;99.90;;;;;;5054664;28;20033;-73
2022/07/14 09:58:40;;;;;;;8.57;1.52;;;17.90;99.90;;;;;;5054616;28;20450;-74
2022/07/14 10:01:08;;;;;;;7.38;1.35;;;17.80;99.90;;;;;;5054573;28;20025;-73
2022/07/14 10:03:36;;;;;;;9.60;2.50;;;17.90;99.90;;;;;;5050042;28;20022;-73
2022/07/14 10:06:03;;;;;;;12.27;2.13;;;17.60;99.90;;;;;;5034437;28;20527;-70
2022/07/14 10:08:33;;;;;;;11.60;1.77;;;17.50;99.90;;;;;;5034328;28;20025;-70
2022/07/14 10:11:00;;;;;;;9.35;1.90;;;17.20;99.90;;;;;;5034375;28;20492;-73
2022/07/14 10:13:26;;;;;;;7.65;1.52;;;17.20;99.90;;;;;;5034444;28;20025;-70
2022/07/14 10:15:54;;;;;;;11.80;1.85;;;17.10;99.90;;;;;;5034573;28;20109;-71
2022/07/14 10:18:21;;;;;;;24.00;2.15;;;17.10;99.90;;;;;;5054285;28;20106;-71
2022/07/14 10:20:50;;;;;;;11.10;2.00;;;17.00;99.90;;;;;;5050604;28;20020;-71
2022/07/14 10:23:17;;;;;;;19.80;1.83;;;17.00;99.90;;;;;;5025850;28;20033;-71
2022/07/14 10:25:49;;;;;;;15.20;1.85;;;17.30;99.90;;;;;;5024657;28;20501;-71
2022/07/14 10:28:16;;;;;;;8.32;1.42;;;17.50;99.90;;;;;;5024874;28;20022;-71
2022/07/14 10:30:45;;;;;;;13.52;2.05;;;17.80;99.90;;;;;;5026020;28;20504;-73
2022/07/14 10:33:31;;;;;;;11.68;1.33;;;18.30;99.90;;;;;;5019862;28;20029;-71
2022/07/14 10:36:38;;;;;;;11.32;1.67;;;18.60;99.90;;;;;;5036239;28;20037;-72
2022/07/14 10:39:07;;;;;;;11.20;1.65;;;18.70;99.90;;;;;;5026753;28;20125;-71
2022/07/14 10:41:55;;;;;;;9.57;1.70;;;18.80;99.90;;;;;;5030202;28;20099;-72
2022/07/14 10:44:26;;;;;;;9.93;1.83;;;18.50;99.90;;;;;;5025888;28;20136;-72
2022/07/14 10:47:07;;;;;;;9.80;1.20;;;18.30;99.90;;;;;;5036364;28;20392;-72
2022/07/14 10:50:00;;;;;;;11.27;1.80;;;18.10;99.90;;;;;;5023626;28;20026;-70
2022/07/14 10:52:26;;;;;;;12.82;1.95;;;18.20;99.90;;;;;;5021247;28;20057;-71
2022/07/14 10:55:12;;;;;;;7.50;1.65;;;17.90;99.90;;;;;;5019691;28;20029;-71
2022/07/14 10:57:37;;;;;;;11.63;1.80;;;17.70;99.90;;;;;;5011847;28;20052;-71
2022/07/14 11:00:04;;;;;;;9.50;1.20;;;17.50;99.90;;;;;;5038652;28;20033;-70
2022/07/14 11:02:31;;;;;;;9.93;1.70;;;17.40;99.90;;;;;;5038872;28;20492;-70
2022/07/14 11:05:12;;;;;;;8.43;1.63;;;17.20;99.90;;;;;;5033387;28;20424;-69
2022/07/14 11:07:41;;;;;;;9.90;1.77;;;17.20;99.90;;;;;;5047113;28;20036;-70
2022/07/14 11:10:18;;;;;;;8.57;1.77;;;17.10;99.90;;;;;;5033359;28;20022;-70
2022/07/14 11:12:59;;;;;;;9.60;1.27;;;17.00;99.90;;;;;;5047233;28;20029;-69
2022/07/14 11:15:45;;;;;;;9.45;1.67;;;16.40;99.90;;;;;;5033534;28;20039;-68
2022/07/14 11:18:24;;;;;;;13.90;2.17;;;15.80;99.90;;;;;;5047273;28;20029;-69
2022/07/14 11:20:58;;;;;;;12.52;2.03;;;15.40;99.90;;;;;;5033387;28;20477;-69
2022/07/14 11:23:27;;;;;;;12.57;1.90;;;15.40;99.90;;;;;;5033216;28;20029;-70
2022/07/14 11:25:54;;;;;;;11.48;2.83;;;15.50;99.90;;;;;;5033204;28;20076;-69
2022/07/14 11:28:31;;;;;;;13.73;1.70;;;15.60;99.90;;;;;;5036244;28;20469;-69
2022/07/14 11:31:16;;;;;;;9.23;1.90;;;15.50;99.90;;;;;;5039032;28;20488;-69
2022/07/14 11:36:33;;;;;;;12.65;1.88;;;15.50;99.90;;;;;;5046927;28;20037;-68
2022/07/14 11:39:17;;;;;;;14.98;2.83;;;15.30;99.90;;;;;;5047706;28;20036;-68
2022/07/14 11:41:44;;;;;;;8.63;2.10;;;14.70;99.90;;;;;;5020360;28;20539;-68
2022/07/14 11:44:40;;;;;;;11.45;2.03;;;14.40;99.90;;;;;;5034488;28;20033;-68
2022/07/14 11:47:09;;;;;;;10.60;2.35;;;14.30;99.90;;;;;;5037117;28;20497;-68
2022/07/14 11:49:36;;;;;;;14.48;2.63;;;14.40;99.90;;;;;;5019178;28;20075;-68
2022/07/14 11:52:03;;;;;;;18.65;2.75;;;14.60;99.90;;;;;;5036814;28;20036;-68
2022/07/14 11:54:29;;;;;;;15.07;2.42;;;14.60;99.90;;;;;;5044761;28;20116;-68
2022/07/14 11:57:06;;;;;;;23.75;3.28;;;14.70;99.90;;;;;;5056548;28;20103;-69
2022/07/14 11:59:33;;;;;;;18.17;2.92;;;14.70;99.90;;;;;;5006727;28;20477;-68
2022/07/14 12:02:15;;;;;;;13.63;3.25;;;14.60;99.90;;;;;;5050084;28;20061;-66
2022/07/14 12:04:59;;;;;;;12.27;2.60;;;14.50;99.90;;;;;;5056298;28;20415;-67
2022/07/14 12:07:47;;;;;;;20.13;2.97;;;14.60;99.90;;;;;;5042124;28;20128;-67
2022/07/14 12:10:15;;;;;;;14.43;2.35;;;14.50;99.90;;;;;;5055813;28;20386;-66
2022/07/14 12:12:44;;;;;;;13.30;2.33;;;14.60;99.90;;;;;;5056213;28;20044;-66
2022/07/14 12:15:11;;;;;;;7.72;2.33;;;14.60;99.90;;;;;;5046056;28;20052;-66
2022/07/14 12:17:48;;;;;;;12.30;2.42;;;14.40;99.90;;;;;;5051867;28;20392;-67
2022/07/14 12:20:14;;;;;;;5.80;1.80;;;14.40;99.90;;;;;;5056205;28;20044;-66
2022/07/14 12:22:52;;;;;;;9.48;2.08;;;14.30;99.90;;;;;;5055946;28;20021;-66
2022/07/14 12:25:36;;;;;;;5.45;1.90;;;14.40;99.90;;;;;;5056336;28;20017;-67
2022/07/14 12:28:09;;;;;;;7.72;2.25;;;14.70;99.90;;;;;;5056369;28;20025;-66
2022/07/14 12:30:47;;;;;;;10.10;2.20;;;15.00;99.90;;;;;;5056088;28;20021;-66
2022/07/14 12:33:14;;;;;;;2.88;1.10;;;15.20;99.90;;;;;;5056369;28;20479;-69
2022/07/14 12:35:42;;;;;;;7.18;2.78;;;15.30;99.90;;;;;;5055906;28;20396;-69
2022/07/14 12:38:10;;;;;;;9.95;1.98;;;15.50;99.90;;;;;;5032887;28;20176;-69
2022/07/14 12:40:36;;;;;;;10.73;2.22;;;15.70;99.90;;;;;;5036366;28;20112;-69
2022/07/14 12:43:03;;;;;;;7.97;1.98;;;15.90;99.90;;;;;;5036234;28;20069;-69
2022/07/14 12:45:30;;;;;;;7.75;1.67;;;16.10;99.90;;;;;;5038868;28;20480;-69
2022/07/14 12:48:00;;;;;;;10.05;2.42;;;16.20;99.90;;;;;;5055852;28;20210;-69
2022/07/14 12:50:27;;;;;;;14.27;2.38;;;16.20;99.90;;;;;;5056265;28;20461;-69
2022/07/14 12:52:54;;;;;;;8.95;1.90;;;16.20;99.90;;;;;;5055862;28;20029;-70
2022/07/14 12:55:38;;;;;;;13.77;2.35;;;16.40;99.90;;;;;;5055695;28;20025;-69
2022/07/14 12:58:08;;;;;;;10.02;2.20;;;16.70;99.90;;;;;;5055630;28;20097;-70
2022/07/14 13:00:36;;;;;;;7.68;1.88;;;16.80;99.90;;;;;;5056244;28;20025;-70
2022/07/14 13:03:17;;;;;;;11.40;2.25;;;16.90;99.90;;;;;;5055860;28;20021;-70
2022/07/14 13:05:47;;;;;;;13.43;1.90;;;17.60;99.90;;;;;;5056906;22;20065;-67